Time;durP1;ratioP1;P1;durP2;ratioP2;P2;SDS_P1;SDS_P2;PMS_P1;PMS_P2;Temp;Humidity;BMP_temperature;BMP_pressure;BME280_temperature;BME280_humidity;BME280_pressure;Samples;Min_cycle;Max_cycle;Signal;HPM_P1;HPM_P2
2024/01/10 00:02:32;;;;;;;;;35.75;27.50;;;;;-1.28;90.58;102303.00;4999184;28;45637;-89
2024/01/10 00:05:07;;;;;;;;;48.00;38.00;;;;;-0.88;89.21;102358.50;5018787;28;45764;-87
2024/01/10 00:08:00;;;;;;;;;46.25;38.75;;;;;-0.14;89.75;102487.59;5002650;28;45409;-89
2024/01/10 00:10:41;;;;;;;;;;;;;;;;;;;;;
2024/01/10 00:13:24;;;;;;;;;44.50;34.50;;;;;-0.87;89.66;102386.19;4997301;28;75216;-90
2024/01/10 00:16:24;;;;;;;;;;;;;;;;;;;;;
2024/01/10 00:19:04;;;;;;;;;39.25;36.50;;;;;-0.10;90.15;102511.09;4986289;28;67343;-89
2024/01/10 00:21:37;;;;;;;;;42.00;32.50;;;;;-0.08;90.60;102485.13;4988347;28;45657;-88
2024/01/10 00:24:29;;;;;;;;;44.00;40.00;;;;;-0.83;90.35;102362.06;5004009;28;46838;-87
2024/01/10 00:27:10;;;;;;;;;48.75;37.75;;;;;-1.52;89.65;102263.47;5043160;28;45484;-88
2024/01/10 00:29:56;;;;;;;;;;;;;;;;;;;;;
2024/01/10 00:32:37;;;;;;;;;;;;;;;;;;;;;
2024/01/10 00:35:21;;;;;;;;;42.25;38.00;;;;;-0.11;91.34;102480.75;4984730;28;75781;-88
2024/01/10 00:38:07;;;;;;;;;46.75;33.50;;;;;-0.08;89.99;102478.22;4998077;28;45462;-87
2024/01/10 00:40:46;;;;;;;;;55.50;42.50;;;;;-0.86;91.45;102330.84;4997819;28;45316;-88
2024/01/10 00:43:24;;;;;;;;;47.75;41.50;;;;;-0.86;90.57;102380.19;5000732;28;45318;-88
2024/01/10 00:46:10;;;;;;;;;48.50;39.25;;;;;-1.44;90.02;102232.53;4995976;28;45954;-88
2024/01/10 00:48:47;;;;;;;;;50.25;34.50;;;;;-1.37;89.38;102242.19;4997631;28;45651;-89
2024/01/10 00:51:34;;;;;;;;;56.00;41.75;;;;;-0.80;90.27;102341.38;5019783;28;45444;-89
2024/01/10 00:54:34;;;;;;;;;44.25;37.50;;;;;-0.05;90.69;102478.28;4986846;28;45439;-88
2024/01/10 00:57:19;;;;;;;;;47.75;35.00;;;;;-1.14;90.27;102330.16;4992852;28;45810;-87
2024/01/10 01:00:12;;;;;;;;;44.00;41.75;;;;;-1.00;90.91;102335.69;5000311;28;45462;-86
2024/01/10 01:02:49;;;;;;;;;;;;;;;;;;;;;
2024/01/10 01:05:18;;;;;;;;;53.50;40.00;;;;;-0.39;89.77;102428.09;4987920;28;71696;-87
2024/01/10 01:07:48;;;;;;;;;45.75;36.75;;;;;0.02;90.73;102500.09;4995833;28;45565;-87
2024/01/10 01:10:23;;;;;;;;;45.75;40.00;;;;;-1.07;90.71;102290.53;5006287;28;45395;-87
2024/01/10 01:13:07;;;;;;;;;40.75;37.00;;;;;-0.24;90.78;102439.72;4987834;28;45559;-87
2024/01/10 01:15:39;;;;;;;;;40.25;33.50;;;;;-0.32;90.82;102406.56;4997107;28;45248;-88
2024/01/10 01:18:31;;;;;;;;;43.50;32.50;;;;;-1.17;91.13;102231.44;4994045;28;46687;-87
2024/01/10 01:21:19;;;;;;;;;48.50;34.75;;;;;0.09;90.33;102486.41;5010955;28;45479;-88
2024/01/10 01:23:56;;;;;;;;;50.25;39.50;;;;;-1.39;89.92;102199.78;4996568;28;45689;-88
2024/01/10 01:26:49;;;;;;;;;50.25;41.00;;;;;-0.66;90.96;102320.06;5007965;28;45386;-87
2024/01/10 01:29:22;;;;;;;;;34.00;18.00;;;;;0.06;90.34;102480.25;4997933;28;45579;-88
2024/01/10 01:31:54;;;;;;;;;47.75;38.00;;;;;0.08;91.06;102458.63;5002210;28;45485;-87
2024/01/10 01:38:06;;;;;;;;;51.50;32.00;;;;;0.12;92.56;102455.25;5007996;28;45266;-87
2024/01/10 01:47:34;;;;;;;;;41.25;36.00;;;;;-0.69;91.17;102356.34;4990576;28;45368;-86
2024/01/10 01:50:43;;;;;;;;;45.25;36.25;;;;;-1.08;90.65;102267.16;5001512;28;45334;-88
2024/01/10 01:53:09;;;;;;;;;44.75;39.00;;;;;-0.13;90.78;102398.38;4992891;28;46851;-87
2024/01/10 01:55:55;;;;;;;;;54.50;42.25;;;;;-0.26;90.16;102424.94;4988593;28;45426;-88
2024/01/10 02:01:57;;;;;;;;;52.00;37.75;;;;;-0.21;90.56;102390.38;4992967;28;45785;-87
2024/01/10 02:04:48;;;;;;;;;47.75;38.00;;;;;-0.60;90.44;102316.72;4995173;28;47334;-88
2024/01/10 02:07:17;;;;;;;;;56.50;40.25;;;;;-1.12;90.14;102219.47;4992327;28;45552;-89
2024/01/10 02:10:03;;;;;;;;;44.25;41.25;;;;;-0.99;92.41;102272.56;4997785;28;45297;-88
2024/01/10 02:12:50;;;;;;;;;40.00;35.25;;;;;-0.46;90.92;102335.22;5003961;28;45444;-88
2024/01/10 02:15:20;;;;;;;;;45.50;37.50;;;;;-0.56;90.29;102322.00;5009718;28;46825;-86
2024/01/10 02:18:06;;;;;;;;;;;;;;;;;;;;;
2024/01/10 02:20:43;;;;;;;;;48.25;38.25;;;;;0.22;91.14;102444.22;4993574;28;69394;-88
2024/01/10 02:23:38;;;;;;;;;43.00;35.75;;;;;-0.48;92.17;102323.91;4994079;28;45270;-87
2024/01/10 02:26:42;;;;;;;;;;;;;;;;;;;;;
2024/01/10 02:29:28;;;;;;;;;47.25;37.75;;;;;-0.43;91.36;102314.50;4998660;28;72032;-86
2024/01/10 02:35:32;;;;;;;;;;;;;;;;;;;;;
2024/01/10 02:38:47;;;;;;;;;;;;;;;;;;;;;
2024/01/10 02:41:30;;;;;;;;;52.00;42.00;;;;;-1.07;89.74;102209.19;4975964;28;74330;-89
2024/01/10 02:44:19;;;;;;;;;51.00;43.00;;;;;-1.15;89.44;102200.34;4959752;28;45468;-86
2024/01/10 02:50:16;;;;;;;;;41.25;38.50;;;;;0.24;89.88;102468.53;4936505;28;45988;-87
2024/01/10 02:53:11;;;;;;;;;47.25;36.50;;;;;0.26;89.88;102461.59;4933616;28;45333;-88
2024/01/10 02:56:14;;;;;;;;;;;;;;;;;;;;;
2024/01/10 03:02:03;;;;;;;;;49.00;41.25;;;;;0.28;90.92;102420.03;4951041;28;45708;-87
2024/01/10 03:04:43;;;;;;;;;45.75;32.00;;;;;-0.97;89.75;102238.81;4932964;28;45398;-86
2024/01/10 03:07:29;;;;;;;;;47.50;41.25;;;;;-0.80;89.48;102227.09;4960249;28;45499;-87
2024/01/10 03:10:15;;;;;;;;;57.25;38.00;;;;;-0.41;89.10;102334.47;4952561;28;45549;-85
2024/01/10 03:12:47;;;;;;;;;37.75;35.75;;;;;-0.85;88.99;102215.75;4938234;28;45548;-87
2024/01/10 03:15:14;;;;;;;;;45.75;37.50;;;;;0.33;88.62;102462.63;5002599;28;45347;-86
2024/01/10 03:21:06;;;;;;;;;54.25;38.50;;;;;0.36;87.35;102429.75;4986309;28;45425;-89
2024/01/10 03:23:41;;;;;;;;;45.50;38.50;;;;;-0.98;86.52;102211.97;5006966;28;45549;-89
2024/01/10 03:26:18;;;;;;;;;38.75;33.25;;;;;-0.42;87.17;102295.44;4996311;28;45498;-88
2024/01/10 03:29:00;;;;;;;;;36.00;31.00;;;;;0.37;87.24;102454.03;4985051;28;45475;-87
2024/01/10 03:31:36;;;;;;;;;52.25;37.50;;;;;0.35;86.84;102432.31;4993365;28;45537;-88
2024/01/10 03:34:16;;;;;;;;;45.75;34.50;;;;;-0.90;86.89;102231.22;4999298;28;47771;-88
2024/01/10 03:36:46;;;;;;;;;38.25;29.00;;;;;-0.44;86.85;102277.25;4999083;28;45399;-89
2024/01/10 03:39:25;;;;;;;;;46.00;31.75;;;;;-0.09;87.35;102335.16;5000957;28;45316;-89
2024/01/10 03:42:23;;;;;;;;;43.25;36.25;;;;;-0.99;86.24;102197.25;4991217;28;45252;-87
2024/01/10 03:45:04;;;;;;;;;39.25;33.25;;;;;-0.41;86.91;102266.91;4996895;28;45808;-87
2024/01/10 03:47:35;;;;;;;;;36.75;30.00;;;;;-0.69;86.59;102228.22;5001283;28;45500;-87
2024/01/10 03:50:08;;;;;;;;;43.25;34.25;;;;;-0.37;86.67;102281.72;4993827;28;45485;-87
2024/01/10 03:52:49;;;;;;;;;43.50;33.25;;;;;-0.73;87.17;102247.16;4987956;28;45509;-87
2024/01/10 03:58:39;;;;;;;;;48.25;38.00;;;;;-0.56;86.12;102267.44;4982774;28;45422;-89
2024/01/10 04:01:15;;;;;;;;;44.00;26.50;;;;;-0.86;85.38;102201.88;4997055;28;45319;-87
2024/01/10 04:07:08;;;;;;;;;41.50;35.50;;;;;-0.66;86.47;102223.06;4980412;28;45570;-88
2024/01/10 04:09:49;;;;;;;;;51.25;40.25;;;;;-0.29;85.96;102287.06;4993598;28;45649;-88
2024/01/10 04:12:16;;;;;;;;;40.50;32.25;;;;;-0.44;86.31;102290.22;4994134;28;45283;-88
2024/01/10 04:15:04;;;;;;;;;37.50;33.00;;;;;0.45;86.52;102426.47;5005711;28;45520;-88
2024/01/10 04:17:38;;;;;;;;;46.25;38.50;;;;;-0.29;87.81;102261.06;4995539;28;45486;-86
2024/01/10 04:20:19;;;;;;;;;49.00;40.00;;;;;0.09;87.00;102378.88;4986079;28;45557;-88
2024/01/10 04:23:06;;;;;;;;;41.75;35.25;;;;;-0.25;86.93;102270.69;4996045;28;45447;-89
2024/01/10 04:25:45;;;;;;;;;45.75;37.75;;;;;-0.26;86.91;102262.00;5002770;28;45388;-88
2024/01/10 04:28:41;;;;;;;;;45.25;35.50;;;;;-0.77;85.16;102193.38;4999486;28;47184;-88
2024/01/10 04:34:10;;;;;;;;;43.50;32.25;;;;;0.01;86.68;102298.09;5002105;28;45340;-88
2024/01/10 04:37:11;;;;;;;;;36.00;33.50;;;;;0.06;87.02;102322.47;5002347;28;45503;-87
2024/01/10 04:40:12;;;;;;;;;51.25;32.00;;;;;-0.67;87.24;102210.94;5007809;28;45417;-87
2024/01/10 04:43:03;;;;;;;;;42.00;34.75;;;;;-0.71;86.51;102172.72;4978837;28;45493;-87
2024/01/10 04:52:30;;;;;;;;;42.75;36.25;;;;;-0.55;85.53;102209.44;4997291;28;46673;-87
2024/01/10 04:55:35;;;;;;;;;;;;;;;;;;;;;
2024/01/10 04:58:17;;;;;;;;;;;;;;;;;;;;;
2024/01/10 05:01:00;;;;;;;;;42.50;37.75;;;;;-0.14;85.22;102264.00;4994590;28;71001;-88
2024/01/10 05:03:34;;;;;;;;;45.50;33.75;;;;;-0.55;86.76;102167.88;5000517;28;45398;-88
2024/01/10 05:06:31;;;;;;;;;;;;;;;;;;;;;
2024/01/10 05:12:09;;;;;;;;;37.50;31.75;;;;;0.25;86.31;102337.59;4993461;28;45673;-90
2024/01/10 05:15:01;;;;;;;;;40.00;34.75;;;;;-0.11;86.28;102238.94;5003050;28;46063;-89
2024/01/10 05:18:12;;;;;;;;;36.00;29.00;;;;;-0.05;86.21;102251.16;4993320;28;45562;-89
2024/01/10 05:20:52;;;;;;;;;58.25;40.00;;;;;-0.07;85.48;102240.75;4997483;28;45578;-90
2024/01/10 05:23:40;;;;;;;;;49.00;37.25;;;;;-0.63;85.33;102147.81;4990436;28;45389;-87
2024/01/10 05:26:51;;;;;;;;;;;;;;;;;;;;;
2024/01/10 05:29:47;;;;;;;;;;;;;;;;;;;;;
2024/01/10 05:32:23;;;;;;;;;40.25;37.00;;;;;-0.08;85.39;102280.59;5004358;28;69970;-87
2024/01/10 05:35:16;;;;;;;;;;;;;;;;;;;;;
2024/01/10 05:38:04;;;;;;;;;37.75;32.00;;;;;0.59;86.66;102351.25;4990966;28;75154;-86
2024/01/10 05:40:40;;;;;;;;;46.50;40.00;;;;;0.09;85.78;102303.44;5009490;28;45335;-88
2024/01/10 05:43:15;;;;;;;;;56.00;40.25;;;;;-0.71;85.97;102145.03;4989113;28;45734;-89
2024/01/10 05:46:23;;;;;;;;;;;;;;;;;;;;;
2024/01/10 05:49:41;;;;;;;;;47.75;38.75;;;;;0.77;86.44;102401.03;4974624;28;74301;-90
2024/01/10 05:52:11;;;;;;;;;31.00;27.75;;;;;-0.54;85.53;102142.78;4974725;28;45501;-89
2024/01/10 05:58:09;;;;;;;;;50.00;39.25;;;;;-0.04;85.37;102272.00;5004386;28;45583;-89
2024/01/10 06:00:46;;;;;;;;;40.50;35.75;;;;;0.75;84.38;102393.22;5000343;28;47003;-86
2024/01/10 06:03:12;;;;;;;;;41.25;36.75;;;;;-0.44;85.23;102155.09;4996304;28;45378;-84
2024/01/10 06:09:21;;;;;;;;;;;;;;;;;;;;;
2024/01/10 06:12:11;;;;;;;;;42.50;37.00;;;;;-0.65;81.82;102137.38;4983472;28;74382;-83
2024/01/10 06:14:49;;;;;;;;;41.50;34.75;;;;;-0.13;81.95;102224.16;4993886;28;45551;-83
2024/01/10 06:17:18;;;;;;;;;31.75;24.50;;;;;-0.56;81.03;102170.47;4997617;28;45319;-83
2024/01/10 06:20:37;;;;;;;;;44.75;35.50;;;;;0.70;80.32;102363.59;4989497;28;45395;-84
2024/01/10 06:23:47;;;;;;;;;;;;;;;;;;;;;
2024/01/10 06:29:35;;;;;;;;;42.75;37.75;;;;;-0.03;79.35;102236.47;4992917;28;45767;-83
2024/01/10 06:33:07;;;;;;;;;;;;;;;;;;;;;
2024/01/10 06:35:47;;;;;;;;;;;;;;;;;;;;;
2024/01/10 06:38:40;;;;;;;;;37.00;33.75;;;;;0.12;80.82;102270.56;4992977;28;73993;-84
2024/01/10 06:41:33;;;;;;;;;42.00;34.25;;;;;0.65;81.08;102388.69;5003379;28;45336;-81
2024/01/10 06:48:04;;;;;;;;;;;;;;;;;;;;;
2024/01/10 06:54:30;;;;;;;;;35.25;28.00;;;;;0.16;80.63;102264.59;4866361;29;45544;-80
2024/01/10 06:57:54;;;;;;;;;;;;;;;;;;;;;
2024/01/10 07:00:58;;;;;;;;;31.75;26.25;;;;;0.14;80.97;102323.50;4949857;28;74547;-83
2024/01/10 07:04:49;;;;;;;;;;;;;;;;;;;;;
2024/01/10 07:10:57;;;;;;;;;37.25;30.00;;;;;0.14;80.72;102287.06;4878416;29;45527;-82
2024/01/10 07:14:14;;;;;;;;;;;;;;;;;;;;;
2024/01/10 07:16:50;;;;;;;;;31.25;26.00;;;;;0.38;80.95;102360.41;4996974;28;71241;-81
2024/01/10 07:19:43;;;;;;;;;37.00;22.50;;;;;-0.64;80.53;102154.72;5005866;28;45426;-82
2024/01/10 07:22:35;;;;;;;;;37.00;29.00;;;;;0.43;80.94;102355.25;5000558;28;45770;-78
2024/01/10 07:25:30;;;;;;;;;42.25;32.50;;;;;-0.03;79.90;102283.25;4995574;28;45656;-79
2024/01/10 07:28:06;;;;;;;;;;;;;;;;;;;;;
2024/01/10 07:30:58;;;;;;;;;27.00;23.50;;;;;0.28;78.99;102305.56;4991161;28;69159;-79
2024/01/10 07:38:22;;;;;;;;;35.00;28.50;;;;;0.56;78.90;102339.03;4992513;28;46179;-77
2024/01/10 07:41:06;;;;;;;;;43.50;34.25;;;;;-0.55;78.16;102191.25;4991529;28;45551;-78
2024/01/10 07:43:53;;;;;;;;;41.75;28.50;;;;;0.00;77.35;102255.59;5002044;28;45489;-77
2024/01/10 07:47:03;;;;;;;;;33.75;29.25;;;;;0.08;77.91;102262.69;5005201;28;45473;-77
2024/01/10 07:53:08;;;;;;;;;37.50;30.00;;;;;0.15;78.13;102288.84;5010242;28;45251;-78
2024/01/10 07:55:51;;;;;;;;;27.75;26.00;;;;;-0.28;80.08;102237.72;5011420;28;45524;-78
2024/01/10 07:58:27;;;;;;;;;34.75;26.00;;;;;-0.28;79.36;102247.25;5006884;28;45634;-77
2024/01/10 08:01:23;;;;;;;;;35.00;25.50;;;;;-0.21;78.40;102243.91;5009168;28;45577;-79
2024/01/10 08:03:49;;;;;;;;;39.25;28.50;;;;;0.48;79.93;102367.53;5006860;28;45686;-78
2024/01/10 08:06:14;;;;;;;;;32.00;24.50;;;;;-0.34;79.04;102228.94;4991835;28;45422;-78
2024/01/10 08:08:48;;;;;;;;;26.75;25.25;;;;;0.08;79.44;102299.97;5022261;28;45438;-78
2024/01/10 08:11:13;;;;;;;;;34.50;27.50;;;;;-0.28;79.19;102258.53;4990804;28;46212;-79
2024/01/10 08:13:42;;;;;;;;;34.75;26.25;;;;;-0.26;79.61;102214.38;4998906;28;45515;-77
2024/01/10 08:16:29;;;;;;;;;29.25;22.00;;;;;0.06;80.43;102306.00;4998724;28;45553;-79
2024/01/10 08:19:30;;;;;;;;;31.75;26.00;;;;;-0.31;79.73;102214.28;4995741;28;45684;-78
2024/01/10 08:22:07;;;;;;;;;31.50;29.25;;;;;-0.41;79.03;102240.91;4983127;28;46972;-79
2024/01/10 08:31:08;;;;;;;;;37.50;28.50;;;;;0.55;80.43;102354.63;4978542;28;45770;-78
2024/01/10 08:33:59;;;;;;;;;33.50;30.75;;;;;-0.28;79.11;102216.94;4999837;28;46430;-78
2024/01/10 08:36:50;;;;;;;;;41.00;31.75;;;;;0.06;79.50;102270.47;4988488;28;45390;-78
2024/01/10 08:39:32;;;;;;;;;39.50;33.00;;;;;-0.47;79.28;102173.25;4995976;28;45347;-79
2024/01/10 08:42:07;;;;;;;;;38.75;30.50;;;;;-0.13;80.44;102256.22;4990097;28;45643;-78
2024/01/10 08:44:37;;;;;;;;;38.00;32.50;;;;;0.71;79.16;102408.75;5002319;28;47839;-78
2024/01/10 08:47:15;;;;;;;;;34.50;28.00;;;;;0.42;79.95;102364.81;5001600;28;45308;-79
2024/01/10 08:49:41;;;;;;;;;29.00;28.25;;;;;-0.14;80.33;102235.41;5004756;28;45465;-78
2024/01/10 08:52:43;;;;;;;;;28.25;22.25;;;;;-0.50;79.78;102213.88;4998855;28;45602;-78
2024/01/10 08:55:46;;;;;;;;;;;;;;;;;;;;;
2024/01/10 09:01:49;;;;;;;;;35.25;30.25;;;;;-0.14;80.58;102233.69;4931022;28;45383;-79
2024/01/10 09:07:30;;;;;;;;;38.50;33.50;;;;;-0.29;80.82;102237.69;5008834;28;45457;-77
2024/01/10 09:10:10;;;;;;;;;29.00;24.75;;;;;0.95;81.54;102456.06;4991954;28;45440;-79
2024/01/10 09:13:22;;;;;;;;;;;;;;;;;;;;;
2024/01/10 09:16:00;;;;;;;;;38.75;35.00;;;;;1.03;80.37;102457.97;4990207;28;72337;-79
2024/01/10 09:54:25;;;;;;;;;35.75;32.25;;;;;0.72;80.47;102432.19;5129346;27;45380;-70
2024/01/10 09:56:51;;;;;;;;;39.75;35.50;;;;;0.88;80.66;102423.81;5115758;27;45407;-70
2024/01/10 09:59:16;;;;;;;;;36.00;33.25;;;;;0.73;78.68;102384.47;5118931;27;45819;-70
2024/01/10 10:01:42;;;;;;;;;32.25;27.75;;;;;1.13;78.30;102429.47;5115700;27;45358;-70
2024/01/10 10:04:11;;;;;;;;;37.50;30.50;;;;;1.12;78.56;102418.16;5107776;27;45475;-70
2024/01/10 10:06:36;;;;;;;;;41.50;36.25;;;;;1.19;77.14;102417.41;5116628;27;45367;-70
2024/01/10 10:09:02;;;;;;;;;29.50;27.00;;;;;1.04;77.59;102375.50;5116799;27;45571;-70
2024/01/10 10:11:27;;;;;;;;;35.75;29.00;;;;;1.33;77.79;102417.66;5117341;27;45422;-70
2024/01/10 10:13:53;;;;;;;;;33.00;27.00;;;;;1.46;78.11;102432.63;5115404;27;46274;-70
2024/01/10 10:16:26;;;;;;;;;34.00;29.50;;;;;1.48;77.10;102430.91;5118060;27;45365;-70
2024/01/10 10:18:53;;;;;;;;;34.25;26.00;;;;;1.47;76.65;102405.72;5102385;27;45512;-70
2024/01/10 10:21:18;;;;;;;;;36.25;30.50;;;;;1.52;75.60;102417.97;5118856;27;45354;-68
2024/01/10 10:23:58;;;;;;;;;29.75;26.75;;;;;1.57;76.80;102420.66;5108512;27;45509;-68
2024/01/10 10:26:23;;;;;;;;;38.50;27.50;;;;;1.43;76.80;102376.13;5108242;27;45288;-68
2024/01/10 10:28:50;;;;;;;;;27.50;21.75;;;;;1.71;76.08;102410.41;5112474;27;45318;-69
2024/01/10 10:31:17;;;;;;;;;33.50;25.75;;;;;1.74;75.03;102419.16;5116244;27;45430;-68
2024/01/10 10:33:44;;;;;;;;;35.50;29.75;;;;;1.76;75.11;102412.25;5112207;27;46686;-69
2024/01/10 10:36:10;;;;;;;;;46.50;38.00;;;;;1.76;75.03;102400.94;5099974;27;45373;-69
2024/01/10 10:38:39;;;;;;;;;32.75;26.75;;;;;1.80;74.26;102400.13;5110261;27;45443;-68
2024/01/10 10:41:10;;;;;;;;;45.00;27.75;;;;;1.78;73.66;102397.50;5111909;27;45672;-69
2024/01/10 10:43:37;;;;;;;;;27.25;26.25;;;;;1.84;74.39;102408.00;5104353;27;45540;-69
2024/01/10 10:46:03;;;;;;;;;39.50;30.00;;;;;1.88;73.39;102420.25;5118210;27;45449;-69
2024/01/10 10:48:32;;;;;;;;;34.25;27.75;;;;;1.94;74.30;102407.28;5112879;27;45222;-69
2024/01/10 10:51:08;;;;;;;;;26.00;22.50;;;;;1.79;73.33;102370.56;5112207;27;45485;-69
2024/01/10 10:53:45;;;;;;;;;39.75;35.00;;;;;2.03;74.36;102394.34;5110737;27;45477;-69
2024/01/10 10:56:12;;;;;;;;;43.00;32.50;;;;;2.11;71.76;102397.06;5088222;27;45302;-69
2024/01/10 10:58:43;;;;;;;;;36.25;33.00;;;;;2.16;73.53;102387.56;5096731;27;45369;-69
2024/01/10 11:01:11;;;;;;;;;34.75;30.75;;;;;2.20;71.95;102394.56;5097843;27;45515;-69
2024/01/10 11:03:39;;;;;;;;;32.00;28.00;;;;;2.25;73.00;102386.81;5097278;27;46259;-69
2024/01/10 11:06:06;;;;;;;;;33.25;32.25;;;;;2.38;73.59;102386.97;5086466;27;45333;-69
2024/01/10 11:08:38;;;;;;;;;31.25;30.75;;;;;2.43;71.77;102389.63;5092271;27;45435;-68
2024/01/10 11:11:07;;;;;;;;;35.00;25.50;;;;;2.44;71.93;102384.44;5097878;27;45476;-68
2024/01/10 11:13:43;;;;;;;;;25.25;19.75;;;;;2.47;71.45;102373.16;5109936;27;47646;-70
2024/01/10 11:16:41;;;;;;;;;37.25;28.50;;;;;2.58;70.69;102390.69;5100871;27;45442;-69
2024/01/10 11:19:35;;;;;;;;;35.25;28.75;;;;;2.52;70.50;102385.38;5085610;27;45305;-68
2024/01/10 11:22:19;;;;;;;;;35.25;33.25;;;;;2.55;68.81;102380.19;5092609;27;45352;-68
2024/01/10 11:24:45;;;;;;;;;29.75;24.00;;;;;2.52;70.47;102361.88;5094809;27;46648;-68
2024/01/10 11:27:12;;;;;;;;;29.75;24.00;;;;;2.60;68.46;102372.41;5121396;27;45578;-69
2024/01/10 11:29:44;;;;;;;;;29.75;26.50;;;;;2.69;69.33;102385.56;5091887;27;45636;-69
2024/01/10 11:32:17;;;;;;;;;25.75;22.00;;;;;2.68;67.91;102370.78;5098180;27;45466;-69
2024/01/10 11:35:11;;;;;;;;;34.75;28.50;;;;;2.60;67.15;102372.41;5100452;27;45316;-69
2024/01/10 11:37:43;;;;;;;;;25.75;24.00;;;;;2.69;69.20;102375.13;5099203;27;45405;-69
2024/01/10 11:40:09;;;;;;;;;30.75;24.25;;;;;2.73;70.13;102376.03;5099463;27;45452;-68
2024/01/10 11:42:48;;;;;;;;;39.50;32.50;;;;;2.79;70.62;102368.25;5092129;27;45214;-68
2024/01/10 11:45:34;;;;;;;;;54.50;42.25;;;;;2.83;69.76;102372.66;5098178;27;45446;-68
2024/01/10 11:47:59;;;;;;;;;49.25;39.75;;;;;2.90;69.83;102371.84;5091503;27;45335;-68
2024/01/10 11:50:26;;;;;;;;;30.00;28.75;;;;;2.91;66.79;102365.78;5095765;27;45434;-68
2024/01/10 11:52:54;;;;;;;;;31.25;26.25;;;;;2.81;68.63;102359.59;5099281;27;45852;-69
2024/01/10 11:55:53;;;;;;;;;44.25;30.50;;;;;2.88;68.58;102376.19;5094379;27;45189;-69
2024/01/10 11:58:19;;;;;;;;;29.25;28.00;;;;;2.86;67.18;102362.22;5100802;27;45312;-69
2024/01/10 12:00:46;;;;;;;;;48.25;42.00;;;;;2.94;68.50;102368.41;5108853;27;45971;-69
2024/01/10 12:03:12;;;;;;;;;38.25;29.00;;;;;2.99;67.94;102369.31;5096159;27;45655;-69
2024/01/10 12:05:38;;;;;;;;;35.50;28.00;;;;;3.02;67.57;102369.34;5094273;27;45588;-69
2024/01/10 12:08:07;;;;;;;;;33.00;30.75;;;;;3.03;66.45;102363.25;5099858;27;45211;-69
2024/01/10 12:10:36;;;;;;;;;33.50;31.25;;;;;3.09;66.96;102364.19;5091834;27;45356;-68
2024/01/10 12:13:02;;;;;;;;;29.75;28.75;;;;;3.11;66.03;102351.09;5095422;27;45465;-68
2024/01/10 12:15:28;;;;;;;;;33.50;30.00;;;;;3.10;66.14;102346.75;5096571;27;45384;-68
2024/01/10 12:17:53;;;;;;;;;31.75;25.50;;;;;2.92;65.38;102323.97;5100699;27;45363;-69
2024/01/10 12:20:19;;;;;;;;;34.75;30.25;;;;;3.06;65.26;102337.13;5099495;27;45278;-69
2024/01/10 12:22:44;;;;;;;;;27.75;24.50;;;;;2.96;64.22;102330.97;5101199;27;45520;-69
2024/01/10 12:25:10;;;;;;;;;35.25;27.75;;;;;3.03;65.51;102339.72;5100095;27;45231;-68
2024/01/10 12:27:35;;;;;;;;;34.00;27.00;;;;;3.00;64.54;102339.72;5099478;27;45388;-69
2024/01/10 12:30:02;;;;;;;;;32.50;25.75;;;;;3.00;65.60;102324.03;5107014;27;45176;-68
2024/01/10 12:32:28;;;;;;;;;33.50;25.00;;;;;3.10;64.69;102331.97;5100420;27;45495;-69
2024/01/10 12:35:04;;;;;;;;;25.25;25.00;;;;;3.10;64.48;102325.84;5097640;27;45337;-69
2024/01/10 12:37:30;;;;;;;;;33.00;28.50;;;;;3.13;65.20;102328.50;5101532;27;45426;-69
2024/01/10 12:39:56;;;;;;;;;33.75;27.50;;;;;3.12;64.61;102322.38;5095055;27;45499;-69
2024/01/10 12:42:21;;;;;;;;;35.25;31.25;;;;;3.13;63.79;102323.25;5102357;27;45611;-69
2024/01/10 12:44:47;;;;;;;;;33.00;30.50;;;;;3.21;63.93;102329.41;5096511;27;45413;-69
2024/01/10 12:47:20;;;;;;;;;33.25;29.25;;;;;3.00;63.93;102296.16;5096574;27;45380;-68
2024/01/10 12:49:45;;;;;;;;;36.75;28.00;;;;;3.18;63.87;102316.31;5100287;27;45292;-68
2024/01/10 12:52:13;;;;;;;;;34.25;31.50;;;;;3.19;63.96;102323.31;5098349;27;45846;-68
2024/01/10 12:54:38;;;;;;;;;28.00;23.00;;;;;2.96;63.58;102275.22;5099935;27;46177;-68
2024/01/10 12:57:04;;;;;;;;;28.25;25.50;;;;;3.15;62.84;102309.34;5093943;27;45463;-69
2024/01/10 12:59:29;;;;;;;;;28.50;24.00;;;;;3.01;62.06;102279.59;5085874;27;45360;-68
2024/01/10 13:01:55;;;;;;;;;30.50;27.75;;;;;3.12;61.25;102318.88;5085973;27;45412;-68
2024/01/10 13:04:20;;;;;;;;;34.00;27.50;;;;;2.80;61.88;102274.22;5097895;27;45508;-68
2024/01/10 13:06:45;;;;;;;;;33.75;30.25;;;;;2.93;62.13;102304.81;5115727;27;45259;-68
2024/01/10 13:09:11;;;;;;;;;32.25;26.00;;;;;2.88;62.65;102303.88;5095572;27;45350;-68
2024/01/10 13:11:36;;;;;;;;;31.25;29.00;;;;;2.73;61.85;102285.47;5094286;27;45439;-68
2024/01/10 13:14:01;;;;;;;;;31.50;23.00;;;;;2.90;62.48;102302.19;5090190;27;46347;-68
2024/01/10 13:16:27;;;;;;;;;25.25;25.25;;;;;2.88;62.09;102308.25;5098355;27;45442;-68
2024/01/10 13:18:53;;;;;;;;;29.25;26.50;;;;;2.85;62.85;102306.47;5090596;27;45497;-68
2024/01/10 13:21:18;;;;;;;;;30.00;26.75;;;;;2.89;62.36;102316.09;5088843;27;46546;-68
2024/01/10 13:23:45;;;;;;;;;29.75;26.75;;;;;2.91;63.51;102313.50;5097023;27;47085;-68
2024/01/10 13:26:11;;;;;;;;;25.75;25.50;;;;;2.78;63.35;102296.81;5092053;27;45317;-68
2024/01/10 13:28:36;;;;;;;;;34.50;28.00;;;;;2.84;62.79;102306.47;5097416;27;45557;-68
2024/01/10 13:31:03;;;;;;;;;32.00;25.00;;;;;2.72;64.04;102296.78;5094743;27;45474;-68
2024/01/10 13:33:29;;;;;;;;;29.00;28.25;;;;;2.69;63.06;102303.72;5089683;27;45486;-68
2024/01/10 13:35:54;;;;;;;;;28.00;25.00;;;;;2.77;63.50;102295.09;5093404;27;45210;-68
2024/01/10 13:38:20;;;;;;;;;34.50;24.00;;;;;2.80;62.64;102302.06;5096168;27;45346;-68
2024/01/10 13:40:45;;;;;;;;;38.25;27.50;;;;;2.61;62.76;102277.53;5098635;27;45441;-69
2024/01/10 13:43:11;;;;;;;;;39.50;31.25;;;;;2.77;62.77;102307.28;5097959;27;48131;-68
2024/01/10 13:45:36;;;;;;;;;28.50;25.00;;;;;2.76;64.31;102302.91;5091456;27;45262;-68
2024/01/10 13:48:02;;;;;;;;;33.25;30.25;;;;;2.76;62.88;102298.56;5097462;27;45460;-68
2024/01/10 13:50:29;;;;;;;;;37.25;28.50;;;;;2.76;62.86;102306.41;5098235;27;45215;-69
2024/01/10 13:52:55;;;;;;;;;33.00;26.75;;;;;2.74;63.76;102302.91;5095983;27;45445;-70
2024/01/10 13:55:20;;;;;;;;;23.25;20.00;;;;;2.73;62.16;102303.75;5084847;27;45467;-69
2024/01/10 13:57:46;;;;;;;;;33.75;30.00;;;;;2.73;62.98;102303.75;5094673;27;45492;-69
2024/01/10 14:00:14;;;;;;;;;32.25;27.25;;;;;2.69;63.14;102298.50;5088487;27;45277;-69
2024/01/10 14:02:41;;;;;;;;;31.50;29.25;;;;;2.69;62.31;102301.09;5095317;27;46323;-69
2024/01/10 14:05:07;;;;;;;;;31.75;29.75;;;;;2.27;63.32;102239.78;5099835;27;45430;-69
2024/01/10 14:07:33;;;;;;;;;26.50;24.75;;;;;2.63;63.04;102310.66;5099994;27;45262;-69
2024/01/10 14:09:58;;;;;;;;;29.50;24.00;;;;;2.62;63.06;102319.34;5100150;27;45419;-69
2024/01/10 14:12:23;;;;;;;;;33.25;29.75;;;;;2.45;64.66;102292.19;5092123;27;46497;-69
2024/01/10 14:14:49;;;;;;;;;29.75;27.00;;;;;2.58;63.51;102306.25;5090667;27;45691;-69
2024/01/10 14:17:14;;;;;;;;;31.75;26.00;;;;;2.59;63.87;102311.47;5098897;27;45375;-69
2024/01/10 14:19:40;;;;;;;;;33.50;29.50;;;;;2.57;63.51;102307.97;5090504;27;45487;-69
2024/01/10 14:22:05;;;;;;;;;28.75;25.50;;;;;2.57;64.31;102313.19;5094886;27;45400;-69
2024/01/10 14:24:32;;;;;;;;;27.75;26.00;;;;;2.43;64.99;102285.19;5093057;27;45462;-69
2024/01/10 14:26:58;;;;;;;;;29.25;22.50;;;;;2.59;64.55;102314.06;5093962;27;45463;-69
2024/01/10 14:29:23;;;;;;;;;36.75;31.00;;;;;2.55;64.67;102314.91;5098018;27;46224;-69
2024/01/10 14:31:49;;;;;;;;;33.75;27.25;;;;;2.55;64.05;102325.34;5094411;27;45449;-69
2024/01/10 14:34:15;;;;;;;;;34.50;27.75;;;;;2.41;65.11;102300.84;5095514;27;45467;-69
2024/01/10 14:36:40;;;;;;;;;31.25;30.75;;;;;2.58;64.94;102335.84;5097498;27;45286;-69
2024/01/10 14:39:12;;;;;;;;;36.75;30.50;;;;;2.52;65.06;102330.53;5090733;27;45366;-69
2024/01/10 14:41:37;;;;;;;;;35.50;30.25;;;;;2.48;64.85;102328.78;5096950;27;46340;-69
2024/01/10 14:44:03;;;;;;;;;31.50;28.75;;;;;2.54;65.03;102347.13;5101522;27;45620;-69
2024/01/10 14:46:29;;;;;;;;;22.75;20.00;;;;;2.42;65.30;102315.63;5098714;27;45433;-69
2024/01/10 14:48:54;;;;;;;;;33.25;26.25;;;;;2.49;65.15;102333.13;5096969;27;45379;-69